createdAt,value
2018-12-22T00:00:56.426Z,13.71
2018-12-22T00:03:23.802Z,13.69
2018-12-22T00:05:51.177Z,13.68
2018-12-22T00:08:18.646Z,13.71
2018-12-22T00:10:46.051Z,13.67
2018-12-22T00:13:13.455Z,13.69
2018-12-22T00:15:40.909Z,13.71
2018-12-22T00:18:08.287Z,13.71
2018-12-22T00:20:35.702Z,13.71
2018-12-22T00:23:03.071Z,13.66
2018-12-22T00:25:30.438Z,13.69
2018-12-22T00:27:57.810Z,13.67
2018-12-22T00:30:25.275Z,13.58
2018-12-22T00:32:52.640Z,13.56
2018-12-22T00:35:20.042Z,13.59
2018-12-22T00:37:47.451Z,13.55
2018-12-22T00:40:14.851Z,13.48
2018-12-22T00:42:42.247Z,13.48
2018-12-22T00:45:09.621Z,13.49
2018-12-22T00:47:36.995Z,13.57
2018-12-22T00:50:05.213Z,13.47
2018-12-22T00:52:32.670Z,13.43
2018-12-22T00:55:00.051Z,13.38
2018-12-22T00:57:27.467Z,13.29
2018-12-22T00:59:54.858Z,13.26
2018-12-22T01:02:22.251Z,13.19
2018-12-22T01:04:49.630Z,13.11
2018-12-22T01:07:17.018Z,13.13
2018-12-22T01:09:44.422Z,13.11
2018-12-22T01:12:11.814Z,13.06
2018-12-22T01:14:39.226Z,13.06
2018-12-22T01:17:06.594Z,13.06
2018-12-22T01:19:33.966Z,13.01
2018-12-22T01:22:01.499Z,13.07
2018-12-22T01:24:28.954Z,13.07
2018-12-22T01:26:56.352Z,13.07
2018-12-22T01:29:23.730Z,13.12
2018-12-22T01:31:51.094Z,13.10
2018-12-22T01:34:18.498Z,13.09
2018-12-22T01:36:45.870Z,13.11
2018-12-22T01:39:13.330Z,13.01
2018-12-22T01:41:40.725Z,13.18
2018-12-22T01:44:08.098Z,13.09
2018-12-22T01:46:35.470Z,13.08
2018-12-22T01:49:02.851Z,13.08
2018-12-22T01:51:30.251Z,13.10
2018-12-22T01:53:57.653Z,13.05
2018-12-22T01:56:25.046Z,13.00
2018-12-22T01:58:52.438Z,13.05
2018-12-22T02:01:19.811Z,13.08
2018-12-22T02:03:47.194Z,13.06
2018-12-22T02:06:14.570Z,13.08
2018-12-22T02:08:41.966Z,13.09
2018-12-22T02:11:09.359Z,13.10
2018-12-22T02:13:36.730Z,13.10
2018-12-22T02:16:04.122Z,13.08
2018-12-22T02:18:31.519Z,13.08
2018-12-22T02:20:58.913Z,13.05
2018-12-22T02:23:26.318Z,13.05
2018-12-22T02:25:53.695Z,13.06
2018-12-22T02:28:21.066Z,13.06
2018-12-22T02:30:48.457Z,13.01
2018-12-22T02:33:15.849Z,13.03
2018-12-22T02:35:43.222Z,12.97
2018-12-22T02:38:10.603Z,13.01
2018-12-22T02:40:38.056Z,12.97
2018-12-22T02:43:05.451Z,12.98
2018-12-22T02:45:32.850Z,13.04
2018-12-22T02:48:00.225Z,12.98
2018-12-22T02:50:27.620Z,13.05
2018-12-22T02:52:55.078Z,13.03
2018-12-22T02:55:22.474Z,13.07
2018-12-22T02:57:49.849Z,13.05
2018-12-22T03:00:17.334Z,13.02
2018-12-22T03:02:44.702Z,12.97
2018-12-22T03:05:12.104Z,12.92
2018-12-22T03:07:39.560Z,13.05
2018-12-22T03:10:06.969Z,13.09
2018-12-22T03:12:34.338Z,13.10
2018-12-22T03:15:01.791Z,13.12
2018-12-22T03:17:29.273Z,13.05
2018-12-22T03:19:56.669Z,13.05
2018-12-22T03:22:24.060Z,13.03
2018-12-22T03:24:51.445Z,13.00
2018-12-22T03:27:18.812Z,12.96
2018-12-22T03:29:46.214Z,12.95
2018-12-22T03:32:13.590Z,12.85
2018-12-22T03:34:41.069Z,12.79
2018-12-22T03:37:08.437Z,12.88
2018-12-22T03:39:35.843Z,12.89
2018-12-22T03:42:03.230Z,12.79
2018-12-22T03:44:30.634Z,12.82
2018-12-22T03:46:58.012Z,12.83
2018-12-22T03:49:25.472Z,12.83
2018-12-22T03:51:52.848Z,12.64
2018-12-22T03:54:20.303Z,12.82
2018-12-22T03:56:47.774Z,12.97
2018-12-22T03:59:24.517Z,12.60
2018-12-22T04:01:44.611Z,12.82
2018-12-22T04:04:11.987Z,12.84
2018-12-22T04:06:39.387Z,12.97
2018-12-22T04:09:09.187Z,12.82
2018-12-22T04:11:36.124Z,12.88
2018-12-22T04:14:03.694Z,13.06
2018-12-22T04:16:31.074Z,12.88
2018-12-22T04:18:58.447Z,13.13
2018-12-22T04:21:25.823Z,13.10
2018-12-22T04:23:53.196Z,13.15
2018-12-22T04:26:20.569Z,13.14
2018-12-22T04:28:47.962Z,13.13
2018-12-22T04:31:15.345Z,13.22
2018-12-22T04:33:42.736Z,13.22
2018-12-22T04:36:10.292Z,13.19
2018-12-22T04:38:37.662Z,13.18
2018-12-22T04:41:05.041Z,13.22
2018-12-22T04:43:32.418Z,13.16
2018-12-22T04:45:59.872Z,13.32
2018-12-22T04:48:27.263Z,13.30
2018-12-22T04:50:54.637Z,13.33
2018-12-22T04:53:22.010Z,13.34
2018-12-22T04:55:49.392Z,13.41
2018-12-22T04:58:16.778Z,13.39
2018-12-22T05:00:44.178Z,13.40
2018-12-22T05:03:11.570Z,13.38
2018-12-22T05:05:38.938Z,13.61
2018-12-22T05:08:06.307Z,13.47
2018-12-22T05:10:33.692Z,13.51
2018-12-22T05:13:01.063Z,13.58
2018-12-22T05:15:28.436Z,13.40
2018-12-22T05:17:55.852Z,13.53
2018-12-22T05:20:23.268Z,13.50
2018-12-22T05:22:50.659Z,13.49
2018-12-22T05:25:18.074Z,13.69
2018-12-22T05:27:45.465Z,13.69
2018-12-22T05:30:12.864Z,13.37
2018-12-22T05:32:40.233Z,13.58
2018-12-22T05:35:07.628Z,13.54
2018-12-22T05:37:35.114Z,13.54
2018-12-22T05:40:02.515Z,13.44
2018-12-22T05:42:29.883Z,13.54
2018-12-22T05:44:57.278Z,13.45
2018-12-22T05:47:24.671Z,13.53
2018-12-22T05:49:52.134Z,13.49
2018-12-22T05:52:19.514Z,13.36
2018-12-22T05:54:46.883Z,13.27
2018-12-22T05:57:14.278Z,13.34
2018-12-22T05:59:41.646Z,12.89
2018-12-22T06:02:09.026Z,13.12
2018-12-22T06:04:36.398Z,13.05
2018-12-22T06:07:03.798Z,13.05
2018-12-22T06:09:31.190Z,13.09
2018-12-22T06:11:58.562Z,12.87
2018-12-22T06:14:25.969Z,13.10
2018-12-22T06:16:53.411Z,12.89
2018-12-22T06:19:20.791Z,12.70
2018-12-22T06:21:48.182Z,12.49
2018-12-22T06:24:15.555Z,12.49
2018-12-22T06:26:42.951Z,12.26
2018-12-22T06:29:10.340Z,12.36
2018-12-22T06:31:37.710Z,12.46
2018-12-22T06:34:05.110Z,12.45
2018-12-22T06:36:32.490Z,12.43
2018-12-22T06:38:59.858Z,12.37
2018-12-22T06:41:27.243Z,12.46
2018-12-22T06:43:54.610Z,12.36
2018-12-22T06:46:22.067Z,12.43
2018-12-22T06:48:49.442Z,12.41
2018-12-22T06:51:16.818Z,12.27
2018-12-22T06:53:44.195Z,12.35
2018-12-22T06:56:11.570Z,12.43
2018-12-22T06:58:38.943Z,12.34
2018-12-22T07:01:06.359Z,12.43
2018-12-22T07:03:33.731Z,12.23
2018-12-22T07:06:01.186Z,12.39
2018-12-22T07:08:28.606Z,12.36
2018-12-22T07:10:56.003Z,12.31
2018-12-22T07:13:23.370Z,12.30
2018-12-22T07:15:50.848Z,12.38
2018-12-22T07:18:18.219Z,12.33
2018-12-22T07:20:45.602Z,12.35
2018-12-22T07:23:12.990Z,12.11
2018-12-22T07:25:40.366Z,12.12
2018-12-22T07:28:07.734Z,12.05
2018-12-22T07:30:35.163Z,11.96
2018-12-22T07:33:02.534Z,11.80
2018-12-22T07:35:29.915Z,11.76
2018-12-22T07:37:57.291Z,11.82
2018-12-22T07:40:24.686Z,11.82
2018-12-22T07:42:52.078Z,11.76
2018-12-22T07:45:19.455Z,11.91
2018-12-22T07:47:46.834Z,11.85
2018-12-22T07:50:14.202Z,11.75
2018-12-22T07:52:41.583Z,11.87
2018-12-22T07:55:09.048Z,11.79
2018-12-22T07:57:36.453Z,11.87
2018-12-22T08:00:05.887Z,11.87
2018-12-22T08:02:33.338Z,11.85
2018-12-22T08:05:00.719Z,11.97
2018-12-22T08:07:28.118Z,11.96
2018-12-22T08:09:55.487Z,12.01
2018-12-22T08:12:22.966Z,12.01
2018-12-22T08:14:50.344Z,12.12
2018-12-22T08:17:17.721Z,12.16
2018-12-22T08:19:45.206Z,12.22
2018-12-22T08:22:12.631Z,12.14
2018-12-22T08:24:40.158Z,12.28
2018-12-22T08:27:07.542Z,12.42
2018-12-22T08:29:34.940Z,12.38
2018-12-22T08:32:02.330Z,12.25
2018-12-22T08:34:29.786Z,12.28
2018-12-22T08:36:57.167Z,12.43
2018-12-22T08:39:24.539Z,12.13
2018-12-22T08:41:51.913Z,12.10
2018-12-22T08:44:19.287Z,12.10
2018-12-22T08:46:46.662Z,11.92
2018-12-22T08:49:14.038Z,12.12
2018-12-22T08:51:41.423Z,12.07
2018-12-22T08:54:08.797Z,12.08
2018-12-22T08:56:36.165Z,12.17
2018-12-22T08:59:03.657Z,12.40
2018-12-22T09:01:31.031Z,12.42
2018-12-22T09:03:58.463Z,12.45
2018-12-22T09:06:25.834Z,12.45
2018-12-22T09:08:53.967Z,12.47
2018-12-22T09:11:21.690Z,12.35
2018-12-22T09:13:49.063Z,12.28
2018-12-22T09:16:16.457Z,12.26
2018-12-22T09:18:43.827Z,12.11
2018-12-22T09:21:11.195Z,12.34
2018-12-22T09:23:38.659Z,12.28
2018-12-22T09:26:08.401Z,12.29
2018-12-22T09:28:35.407Z,12.26
2018-12-22T09:31:02.775Z,12.24
2018-12-22T09:33:30.234Z,12.19
2018-12-22T09:35:57.682Z,12.11
2018-12-22T09:38:25.066Z,12.05
2018-12-22T09:40:52.439Z,11.89
2018-12-22T09:43:19.819Z,11.88
2018-12-22T09:45:47.295Z,11.96
2018-12-22T09:48:14.670Z,12.13
2018-12-22T09:50:42.046Z,11.93
2018-12-22T09:53:10.043Z,12.09
2018-12-22T09:55:37.602Z,11.92
2018-12-22T09:58:04.974Z,12.04
2018-12-22T10:00:32.343Z,12.18
2018-12-22T10:02:59.755Z,12.15
2018-12-22T10:05:27.231Z,12.15
2018-12-22T10:07:54.606Z,12.26
2018-12-22T10:10:22.017Z,12.27
2018-12-22T10:12:49.394Z,12.44
2018-12-22T10:15:16.779Z,12.52
2018-12-22T10:17:44.238Z,12.61
2018-12-22T10:20:11.636Z,12.64
2018-12-22T10:22:39.010Z,12.67
2018-12-22T10:25:07.422Z,12.74
2018-12-22T10:27:34.801Z,12.74
2018-12-22T10:30:02.219Z,12.82
2018-12-22T10:32:29.683Z,12.96
2018-12-22T10:34:57.058Z,13.09
2018-12-22T10:37:24.438Z,12.92
2018-12-22T10:39:51.806Z,12.96
2018-12-22T10:42:19.182Z,12.92
2018-12-22T10:44:46.554Z,13.05
2018-12-22T10:47:13.930Z,13.08
2018-12-22T10:49:41.400Z,13.17
2018-12-22T10:52:08.793Z,13.03
2018-12-22T10:54:36.174Z,13.30
2018-12-22T10:57:04.172Z,13.24
2018-12-22T10:59:31.850Z,13.40
2018-12-22T11:01:59.226Z,13.33
2018-12-22T11:04:26.607Z,13.37
2018-12-22T11:06:54.802Z,13.13
2018-12-22T11:09:22.190Z,13.20
2018-12-22T11:11:49.586Z,13.22
2018-12-22T11:14:16.964Z,13.37
2018-12-22T11:16:44.342Z,13.25
2018-12-22T11:19:11.742Z,13.32
2018-12-22T11:21:39.114Z,13.15
2018-12-22T11:24:06.509Z,12.68
2018-12-22T11:26:33.874Z,12.48
2018-12-22T11:29:01.250Z,12.35
2018-12-22T11:31:34.998Z,12.24
2018-12-22T11:33:57.989Z,12.10
2018-12-22T11:36:25.363Z,12.02
2018-12-22T11:38:52.734Z,11.93
2018-12-22T11:41:20.115Z,11.75
2018-12-22T11:43:47.519Z,11.77
2018-12-22T11:46:14.934Z,11.64
2018-12-22T11:48:43.766Z,11.55
2018-12-22T11:51:11.169Z,11.48
2018-12-22T11:53:38.759Z,11.51
2018-12-22T11:56:06.130Z,11.64
2018-12-22T11:58:33.558Z,11.63
2018-12-22T12:01:01.022Z,11.63
2018-12-22T12:03:28.440Z,11.46
2018-12-22T12:05:55.802Z,11.47
2018-12-22T12:08:23.183Z,11.45
2018-12-22T12:10:50.550Z,11.51
2018-12-22T12:13:17.967Z,11.57
2018-12-22T12:15:47.096Z,11.66
2018-12-22T12:21:12.757Z,11.61
2018-12-22T12:23:40.131Z,11.59
2018-12-22T12:26:07.514Z,11.54
2018-12-22T12:28:34.896Z,11.70
2018-12-22T12:31:02.289Z,11.90
2018-12-22T12:33:29.670Z,12.07
2018-12-22T12:35:57.066Z,12.04
2018-12-22T12:38:24.442Z,12.22
2018-12-22T12:40:51.819Z,12.29
2018-12-22T12:43:19.195Z,12.35
2018-12-22T12:45:46.735Z,12.48
2018-12-22T12:48:14.114Z,12.62
2018-12-22T12:50:43.440Z,12.75
2018-12-22T12:53:10.901Z,12.78
2018-12-22T12:55:38.791Z,12.95
2018-12-22T12:58:06.163Z,13.01
2018-12-22T13:00:33.887Z,13.14
2018-12-22T13:03:01.287Z,13.22
2018-12-22T13:05:28.675Z,13.28
2018-12-22T13:07:56.051Z,13.36
2018-12-22T13:10:23.421Z,13.36
2018-12-22T13:15:50.799Z,13.51
2018-12-22T13:18:18.194Z,13.49
2018-12-22T13:20:45.594Z,13.32
2018-12-22T13:23:13.050Z,13.48
2018-12-22T13:25:40.514Z,13.52
2018-12-22T13:28:07.886Z,13.47
2018-12-22T13:30:35.258Z,13.33
2018-12-22T13:33:02.660Z,13.37
2018-12-22T13:35:30.038Z,13.40
2018-12-22T13:37:57.411Z,13.48
2018-12-22T13:40:24.795Z,13.41
2018-12-22T13:42:52.212Z,13.23
2018-12-22T13:45:19.589Z,13.26
2018-12-22T13:47:47.025Z,13.46
2018-12-22T13:50:14.521Z,13.48
2018-12-22T13:52:42.013Z,13.24
2018-12-22T13:55:10.157Z,13.38
2018-12-22T13:57:42.979Z,13.33
2018-12-22T14:00:18.886Z,13.33
2018-12-22T14:02:46.277Z,13.05
2018-12-22T14:05:18.930Z,13.11
2018-12-22T14:07:46.306Z,13.10
2018-12-22T14:10:13.708Z,12.85
2018-12-22T14:12:41.093Z,12.50
2018-12-22T14:15:14.574Z,12.57
2018-12-22T14:17:45.000Z,12.55
2018-12-22T14:20:12.530Z,12.38
2018-12-22T14:22:39.912Z,12.22
2018-12-22T14:25:10.926Z,12.20
2018-12-22T14:27:38.327Z,12.28
2018-12-22T14:30:10.554Z,12.35
2018-12-22T14:32:37.942Z,12.13
2018-12-22T14:35:16.991Z,12.28
2018-12-22T14:37:44.359Z,12.25
2018-12-22T14:40:12.760Z,12.23
2018-12-22T14:42:40.184Z,12.09
2018-12-22T14:45:12.685Z,12.15
2018-12-22T14:47:40.274Z,12.17
2018-12-22T14:50:12.231Z,12.15
2018-12-22T14:52:39.627Z,12.28
2018-12-22T14:55:10.681Z,12.30
2018-12-22T14:57:43.651Z,12.31
2018-12-22T15:00:14.780Z,12.27
2018-12-22T15:02:42.159Z,12.26
2018-12-22T15:05:09.554Z,12.07
2018-12-22T15:07:36.950Z,12.04
2018-12-22T15:10:08.311Z,12.01
2018-12-22T15:12:35.710Z,12.08
2018-12-22T15:15:03.831Z,12.10
2018-12-22T15:17:31.235Z,12.05
2018-12-22T15:19:58.632Z,11.99
2018-12-22T15:22:26.026Z,12.05
2018-12-22T15:24:53.492Z,11.91
2018-12-22T15:27:20.866Z,11.85
2018-12-22T15:29:48.242Z,11.84
2018-12-22T15:32:15.623Z,11.80
2018-12-22T15:34:42.994Z,11.80
2018-12-22T15:37:10.370Z,11.78
2018-12-22T15:39:37.774Z,11.69
2018-12-22T15:42:05.156Z,11.76
2018-12-22T15:44:32.554Z,11.71
2018-12-22T15:46:59.974Z,11.65
2018-12-22T15:49:27.346Z,11.70
2018-12-22T15:51:54.726Z,11.64
2018-12-22T15:54:22.122Z,11.64
2018-12-22T15:56:49.500Z,11.60
2018-12-22T15:59:16.875Z,11.62
2018-12-22T16:01:44.282Z,11.59
2018-12-22T16:04:11.682Z,11.58
2018-12-22T16:06:39.077Z,11.58
2018-12-22T16:09:06.473Z,11.56
2018-12-22T16:11:33.850Z,11.50
2018-12-22T16:14:01.253Z,11.41
2018-12-22T16:16:28.671Z,11.45
2018-12-22T16:18:56.048Z,11.36
2018-12-22T16:21:23.448Z,11.36
2018-12-22T16:23:50.826Z,11.25
2018-12-22T16:26:18.204Z,11.12
2018-12-22T16:28:45.716Z,11.20
2018-12-22T16:31:13.110Z,11.12
2018-12-22T16:33:40.502Z,11.07
2018-12-22T16:36:07.969Z,11.02
2018-12-22T16:38:35.331Z,10.97
2018-12-22T16:41:02.776Z,10.92
2018-12-22T16:43:30.178Z,10.85
2018-12-22T16:45:57.684Z,10.89
2018-12-22T16:48:25.071Z,10.82
2018-12-22T16:50:52.501Z,10.96
2018-12-22T16:53:19.906Z,10.95
2018-12-22T16:55:47.311Z,10.99
2018-12-22T16:58:18.539Z,10.96
2018-12-22T17:00:59.389Z,10.97
2018-12-22T17:03:27.214Z,10.98
2018-12-22T17:05:54.930Z,10.92
2018-12-22T17:08:22.334Z,11.02
2018-12-22T17:10:49.739Z,11.06
2018-12-22T17:13:17.354Z,11.05
2018-12-22T17:15:45.566Z,11.12
2018-12-22T17:18:12.958Z,11.12
2018-12-22T17:20:40.353Z,11.11
2018-12-22T17:23:27.049Z,11.14
2018-12-22T17:25:56.084Z,11.24
2018-12-22T17:28:28.218Z,11.22
2018-12-22T17:30:52.826Z,11.17
2018-12-22T17:33:20.228Z,11.21
2018-12-22T17:35:47.709Z,11.20
2018-12-22T17:38:15.115Z,11.24
2018-12-22T17:40:42.514Z,11.30
2018-12-22T17:43:09.919Z,11.32
2018-12-22T17:45:37.307Z,11.33
2018-12-22T17:48:04.710Z,11.37
2018-12-22T17:50:32.090Z,11.38
2018-12-22T17:52:59.704Z,11.35
2018-12-22T17:55:27.278Z,11.38
2018-12-22T17:57:54.766Z,11.34
2018-12-22T18:00:22.142Z,11.37
2018-12-22T18:02:49.532Z,11.37
2018-12-22T18:05:16.971Z,11.39
2018-12-22T18:07:44.342Z,11.40
2018-12-22T18:10:12.045Z,11.37
2018-12-22T18:12:39.422Z,11.38
2018-12-22T18:15:23.854Z,11.36
2018-12-22T18:17:51.253Z,11.41
2018-12-22T18:20:18.666Z,11.40
2018-12-22T18:22:46.043Z,11.43
2018-12-22T18:25:16.855Z,11.43
2018-12-22T18:27:44.482Z,11.28
2018-12-22T18:30:12.751Z,11.47
2018-12-22T18:32:41.575Z,11.51
2018-12-22T18:35:10.810Z,11.46
2018-12-22T18:37:38.927Z,11.48
2018-12-22T18:40:12.065Z,11.51
2018-12-22T18:42:39.462Z,11.49
2018-12-22T18:45:10.318Z,11.49
2018-12-22T18:47:37.829Z,11.47
2018-12-22T18:50:11.414Z,11.51
2018-12-22T18:52:38.792Z,11.64
2018-12-22T18:55:08.410Z,11.69
2018-12-22T18:57:35.934Z,11.61
2018-12-22T19:00:06.658Z,11.54
2018-12-22T19:02:34.043Z,11.74
2018-12-22T19:05:01.444Z,11.65
2018-12-22T19:07:28.894Z,11.74
2018-12-22T19:09:56.387Z,11.74
2018-12-22T19:12:23.755Z,11.72
2018-12-22T19:14:53.841Z,11.79
2018-12-22T19:17:21.254Z,11.78
2018-12-22T19:19:48.960Z,11.81
2018-12-22T19:22:16.330Z,11.84
2018-12-22T19:24:43.718Z,11.86
2018-12-22T19:27:11.086Z,11.77
2018-12-22T19:29:38.469Z,11.86
2018-12-22T19:32:05.845Z,11.77
2018-12-22T19:34:33.362Z,11.84
2018-12-22T19:37:00.807Z,12.03
2018-12-22T19:39:28.185Z,11.93
2018-12-22T19:41:55.607Z,11.97
2018-12-22T19:44:22.982Z,12.09
2018-12-22T19:46:50.381Z,12.07
2018-12-22T19:49:17.742Z,12.02
2018-12-22T19:51:45.119Z,11.95
2018-12-22T19:54:12.494Z,12.07
2018-12-22T19:56:39.880Z,11.93
2018-12-22T19:59:07.356Z,11.97
2018-12-22T20:01:34.874Z,12.08
2018-12-22T20:04:02.485Z,12.13
2018-12-22T20:06:30.048Z,12.03
2018-12-22T20:08:57.425Z,12.09
2018-12-22T20:11:24.812Z,12.09
2018-12-22T20:13:52.230Z,12.08
2018-12-22T20:16:19.606Z,12.04
2018-12-22T20:18:46.983Z,12.02
2018-12-22T20:21:14.366Z,11.99
2018-12-22T20:23:41.749Z,11.98
2018-12-22T20:26:09.123Z,12.01
2018-12-22T20:28:36.601Z,12.02
2018-12-22T20:31:04.102Z,12.05
2018-12-22T20:33:31.483Z,12.07
2018-12-22T20:35:58.875Z,12.06
2018-12-22T20:38:26.251Z,12.07
2018-12-22T20:40:53.622Z,12.09
2018-12-22T20:43:21.002Z,12.06
2018-12-22T20:45:48.371Z,12.06
2018-12-22T20:48:15.746Z,12.06
2018-12-22T20:50:43.130Z,12.05
2018-12-22T20:53:10.515Z,12.06
2018-12-22T20:55:37.923Z,12.05
2018-12-22T20:58:06.016Z,12.05
2018-12-22T21:00:33.411Z,12.07
2018-12-22T21:03:00.774Z,12.05
2018-12-22T21:05:30.192Z,12.06
2018-12-22T21:07:57.586Z,12.04
2018-12-22T21:10:24.984Z,11.95
2018-12-22T21:12:52.385Z,12.03
2018-12-22T21:15:19.782Z,12.01
2018-12-22T21:17:47.162Z,11.99
2018-12-22T21:20:14.545Z,11.96
2018-12-22T21:22:41.917Z,12.00
2018-12-22T21:25:09.294Z,11.98
2018-12-22T21:27:36.707Z,11.98
2018-12-22T21:30:06.034Z,12.01
2018-12-22T21:32:33.414Z,12.02
2018-12-22T21:35:00.803Z,12.08
2018-12-22T21:37:28.288Z,12.08
2018-12-22T21:39:55.682Z,12.10
2018-12-22T21:42:23.070Z,12.08
2018-12-22T21:44:50.631Z,12.10
2018-12-22T21:47:18.011Z,12.13
2018-12-22T21:49:45.386Z,12.12
2018-12-22T21:52:12.788Z,12.10
2018-12-22T21:54:40.186Z,12.14
2018-12-22T21:57:07.571Z,12.21
2018-12-22T21:59:34.957Z,12.15
2018-12-22T22:02:02.363Z,12.14
2018-12-22T22:04:36.998Z,12.16
2018-12-22T22:06:59.178Z,12.15
2018-12-22T22:09:26.545Z,12.08
2018-12-22T22:11:53.925Z,12.10
2018-12-22T22:14:21.314Z,12.11
2018-12-22T22:16:48.702Z,12.16
2018-12-22T22:19:16.070Z,12.16
2018-12-22T22:21:43.480Z,12.13
2018-12-22T22:24:11.034Z,12.14
2018-12-22T22:26:38.435Z,12.13
2018-12-22T22:29:05.806Z,12.07
2018-12-22T22:31:33.187Z,12.07
2018-12-22T22:34:00.597Z,12.07
2018-12-22T22:36:27.979Z,11.97
2018-12-22T22:38:55.390Z,12.03
2018-12-22T22:41:22.782Z,12.02
2018-12-22T22:43:50.155Z,11.99
2018-12-22T22:46:17.529Z,11.94
2018-12-22T22:48:44.902Z,11.87
2018-12-22T22:51:12.281Z,11.84
2018-12-22T22:53:39.655Z,11.82
2018-12-22T22:56:07.229Z,11.84
2018-12-22T22:58:34.598Z,11.74
2018-12-22T23:01:02.085Z,11.84
2018-12-22T23:03:29.483Z,11.85
2018-12-22T23:05:56.916Z,11.83
2018-12-22T23:08:24.271Z,11.84
2018-12-22T23:10:51.652Z,11.79
2018-12-22T23:13:19.026Z,11.72
2018-12-22T23:15:46.431Z,11.69
2018-12-22T23:18:13.814Z,11.66
2018-12-22T23:20:41.227Z,11.73
2018-12-22T23:23:08.627Z,11.74
2018-12-22T23:25:36.022Z,11.70
2018-12-22T23:28:03.421Z,11.77
2018-12-22T23:30:30.819Z,11.74
2018-12-22T23:32:58.214Z,11.68
2018-12-22T23:35:25.760Z,11.75
2018-12-22T23:37:53.163Z,11.74
2018-12-22T23:40:20.588Z,11.67
2018-12-22T23:42:47.970Z,11.77
2018-12-22T23:45:15.350Z,11.81
2018-12-22T23:47:42.738Z,11.85
2018-12-22T23:50:10.242Z,11.81
2018-12-22T23:52:37.647Z,11.81
2018-12-22T23:55:05.374Z,11.84
2018-12-22T23:57:32.754Z,11.86
